Time;durP1;ratioP1;P1;durP2;ratioP2;P2;SDS_P1;SDS_P2;PMS_P1;PMS_P2;Temp;Humidity;BMP_temperature;BMP_pressure;BME280_temperature;BME280_humidity;BME280_pressure;Samples;Min_cycle;Max_cycle;Signal;HPM_P1;HPM_P2
2021/12/25 00:00:16;;;;;;;20.20;12.50;;;;;;;6.52;100.00;97512.44;4824411;29;20274;-63
2021/12/25 00:02:43;;;;;;;19.77;11.87;;;;;;;6.40;100.00;97509.63;4824364;29;20270;-63
2021/12/25 00:05:14;;;;;;;24.23;13.87;;;;;;;6.56;100.00;97515.47;4823578;29;20811;-63
2021/12/25 00:07:39;;;;;;;25.63;14.07;;;;;;;6.66;100.00;97510.53;4824322;29;20312;-63
2021/12/25 00:10:07;;;;;;;19.37;11.77;;;;;;;6.49;100.00;97503.03;4824056;29;20317;-63
2021/12/25 00:12:33;;;;;;;17.77;10.77;;;;;;;6.26;100.00;97505.38;4824462;29;20027;-63
2021/12/25 00:14:59;;;;;;;19.13;10.90;;;;;;;6.42;100.00;97496.97;4807936;29;20968;-62
2021/12/25 00:17:26;;;;;;;19.00;11.77;;;;;;;6.49;100.00;97507.53;4824025;29;20399;-62
2021/12/25 00:19:53;;;;;;;21.73;12.53;;;;;;;6.58;100.00;97510.78;4808032;29;20301;-62
2021/12/25 00:22:21;;;;;;;19.07;11.53;;;;;;;6.26;100.00;97512.50;4824135;29;20353;-62
2021/12/25 00:24:48;;;;;;;23.50;13.57;;;;;;;6.43;100.00;97514.50;4824121;29;20270;-64
2021/12/25 00:32:47;;;;;;;24.63;13.83;;;;;;;6.72;100.00;97497.22;4824275;29;20331;-63
2021/12/25 00:35:13;;;;;;;26.23;13.80;;;;;;;6.87;100.00;97496.94;4823910;29;20270;-63
2021/12/25 00:37:38;;;;;;;22.70;12.53;;;;;;;6.54;100.00;97500.59;4823936;29;20140;-63
2021/12/25 00:40:05;;;;;;;22.37;12.27;;;;;;;6.66;100.00;97495.44;4823690;29;20034;-62
2021/12/25 00:42:31;;;;;;;22.43;12.50;;;;;;;6.71;100.00;97492.94;4823788;29;20516;-63
2021/12/25 00:44:56;;;;;;;19.10;11.90;;;;;;;6.54;100.00;97497.94;4823698;29;20377;-63
2021/12/25 00:47:22;;;;;;;22.67;11.83;;;;;;;6.48;100.00;97498.75;4823730;29;20743;-63
2021/12/25 00:49:48;;;;;;;21.43;12.47;;;;;;;6.46;100.00;97490.19;4823786;29;20026;-63
2021/12/25 00:52:14;;;;;;;22.43;12.80;;;;;;;6.54;100.00;97494.47;4823738;29;20046;-63
2021/12/25 00:54:40;;;;;;;22.20;13.30;;;;;;;6.43;100.00;97500.44;4823558;29;20112;-63
2021/12/25 00:57:07;;;;;;;21.43;12.43;;;;;;;6.32;100.00;97495.78;4823580;29;20273;-62
2021/12/25 00:59:32;;;;;;;24.67;13.00;;;;;;;6.41;100.00;97495.31;4807243;29;20292;-62
2021/12/25 01:01:58;;;;;;;20.80;12.87;;;;;;;6.34;100.00;97496.38;4807226;29;20270;-62
2021/12/25 01:04:25;;;;;;;21.37;12.73;;;;;;;6.28;100.00;97499.84;4823472;29;20481;-63
2021/12/25 01:06:51;;;;;;;23.60;13.30;;;;;;;6.42;100.00;97504.09;4823477;29;20041;-63
2021/12/25 01:09:17;;;;;;;22.93;12.77;;;;;;;6.37;100.00;97503.91;4823282;29;20294;-63
2021/12/25 01:11:48;;;;;;;21.67;12.83;;;;;;;6.56;100.00;97507.53;4807137;29;20114;-62
2021/12/25 01:14:42;;;;;;;24.10;13.03;;;;;;;6.52;100.00;97507.13;4823520;29;20281;-63
2021/12/25 01:17:19;;;;;;;24.13;13.07;;;;;;;6.45;100.00;97496.53;4822851;29;20286;-63
2021/12/25 01:26:22;;;;;;;22.42;12.25;;;;;;;6.33;100.00;97515.97;4823562;29;19916;-62
2021/12/25 01:35:57;;;;;;;23.53;13.50;;;;;;;6.46;100.00;97521.25;4823029;29;20677;-63
2021/12/25 01:49:04;;;;;;;;;;;;;;;6.37;100.00;97522.47;4823223;29;20383;-63
2021/12/25 01:51:31;;;;;;;23.60;13.13;;;;;;;6.54;100.00;97516.50;4822894;29;19917;-63
2021/12/25 01:53:56;;;;;;;24.10;13.10;;;;;;;6.38;100.00;97518.78;4822790;29;20038;-63
2021/12/25 01:56:23;;;;;;;24.37;13.17;;;;;;;6.58;100.00;97510.78;4806428;29;20278;-63
2021/12/25 01:58:49;;;;;;;27.13;13.77;;;;;;;6.55;100.00;97517.31;4806452;29;20079;-63
2021/12/25 02:01:15;;;;;;;26.07;13.40;;;;;;;6.63;100.00;97518.91;4822722;29;20270;-63
2021/12/25 02:03:42;;;;;;;22.97;13.23;;;;;;;6.35;100.00;97516.56;4822782;29;20274;-63
2021/12/25 02:06:09;;;;;;;23.87;12.43;;;;;;;6.50;100.00;97522.44;4822891;29;20397;-63
2021/12/25 02:08:36;;;;;;;27.27;13.10;;;;;;;6.46;100.00;97518.59;4822575;29;20294;-63
2021/12/25 02:11:03;;;;;;;26.47;13.73;;;;;;;6.44;100.00;97515.31;4822706;29;20748;-63
2021/12/25 02:13:29;;;;;;;24.10;12.97;;;;;;;6.49;100.00;97508.34;4822862;29;20270;-63
2021/12/25 02:15:56;;;;;;;22.40;12.57;;;;;;;6.51;100.00;97502.84;4822698;29;20402;-63
2021/12/25 02:18:54;;;;;;;31.00;15.80;;;;;;;6.86;100.00;97497.97;4822578;29;20111;-63
2021/12/25 02:21:20;;;;;;;26.70;14.33;;;;;;;6.76;100.00;97506.41;4821937;29;20787;-62
2021/12/25 02:23:46;;;;;;;24.03;12.10;;;;;;;6.77;100.00;97497.41;4822726;29;20351;-63
2021/12/25 02:26:12;;;;;;;23.03;13.53;;;;;;;6.66;100.00;97505.22;4822454;29;20640;-63
2021/12/25 02:28:39;;;;;;;25.30;13.10;;;;;;;6.49;100.00;97507.53;4823827;29;20282;-63
2021/12/25 02:31:07;;;;;;;30.33;14.90;;;;;;;6.75;100.00;97507.44;4826003;29;20034;-62
2021/12/25 02:33:33;;;;;;;23.30;13.03;;;;;;;6.64;100.00;97521.34;4826026;29;20304;-63
2021/12/25 02:35:59;;;;;;;28.77;15.80;;;;;;;6.93;100.00;97511.19;4826044;29;20030;-63
2021/12/25 02:38:25;;;;;;;27.67;13.63;;;;;;;6.75;100.00;97520.69;4825821;29;20313;-63
2021/12/25 02:40:51;;;;;;;24.07;12.73;;;;;;;6.84;100.00;97521.25;4809475;29;20041;-63
2021/12/25 02:43:18;;;;;;;23.87;13.70;;;;;;;6.98;100.00;97522.00;4825522;29;20751;-63
2021/12/25 02:45:44;;;;;;;23.53;13.20;;;;;;;6.96;100.00;97511.59;4825733;29;20282;-63
2021/12/25 02:48:14;;;;;;;32.97;21.57;;;;;;;7.15;100.00;97510.66;4825562;29;20034;-63
2021/12/25 02:50:41;;;;;;;21.63;13.17;;;;;;;6.97;100.00;97507.09;4825718;29;20266;-63
2021/12/25 02:53:08;;;;;;;19.43;11.23;;;;;;;6.90;100.00;97512.47;4824480;29;20409;-63
2021/12/25 02:55:36;;;;;;;21.13;11.20;;;;;;;6.79;100.00;97507.81;4825556;29;20443;-62
2021/12/25 02:58:01;;;;;;;25.97;12.13;;;;;;;7.09;100.00;97516.03;4825417;29;20274;-63
2021/12/25 03:00:44;;;;;;;25.00;12.77;;;;;;;7.15;100.00;97513.31;4825342;29;20281;-63
2021/12/25 03:03:10;;;;;;;24.83;13.40;;;;;;;6.96;100.00;97519.56;4825371;29;20030;-62
2021/12/25 03:05:37;;;;;;;24.13;12.80;;;;;;;6.97;100.00;97507.91;4825352;29;20312;-63
2021/12/25 03:08:05;;;;;;;23.70;12.27;;;;;;;6.83;100.00;97503.69;4825277;29;20270;-63
2021/12/25 03:10:33;;;;;;;20.47;11.57;;;;;;;6.73;100.00;97517.44;4825100;29;20274;-63
2021/12/25 03:15:46;;;;;;;22.73;12.40;;;;;;;7.02;100.00;97510.75;4825046;29;20302;-63
2021/12/25 03:18:16;;;;;;;37.27;23.67;;;;;;;7.07;100.00;97508.25;4825159;29;20045;-63
2021/12/25 03:20:45;;;;;;;41.63;24.83;;;;;;;7.22;100.00;97508.78;4825123;29;20274;-63
2021/12/25 03:23:13;;;;;;;43.73;26.83;;;;;;;7.12;100.00;97504.97;4825236;29;20760;-63
2021/12/25 03:25:40;;;;;;;37.53;24.53;;;;;;;7.18;100.00;97504.91;4824967;29;20285;-63
2021/12/25 03:28:06;;;;;;;34.53;18.37;;;;;;;7.25;100.00;97497.75;4825020;29;20269;-63
2021/12/25 03:30:36;;;;;;;34.33;18.67;;;;;;;7.15;100.00;97497.38;4824949;29;20278;-63
2021/12/25 03:33:03;;;;;;;26.60;15.77;;;;;;;7.04;100.00;97497.28;4825088;29;20034;-63
2021/12/25 03:35:29;;;;;;;25.53;14.87;;;;;;;6.95;100.00;97491.38;4824914;29;20273;-63
2021/12/25 03:37:54;;;;;;;24.83;13.57;;;;;;;6.89;100.00;97494.91;4824872;29;20285;-63
2021/12/25 03:40:20;;;;;;;18.63;11.57;;;;;;;6.93;100.00;97503.22;4814798;29;20100;-63
2021/12/25 03:42:46;;;;;;;20.40;11.60;;;;;;;6.71;100.00;97502.75;4806977;29;20038;-62
2021/12/25 03:45:12;;;;;;;23.17;13.33;;;;;;;6.83;100.00;97493.91;4821613;29;20529;-62
2021/12/25 03:47:39;;;;;;;26.93;14.73;;;;;;;6.77;100.00;97500.06;4824711;29;20030;-63
2021/12/25 03:53:24;;;;;;;18.57;11.63;;;;;;;6.58;100.00;97510.78;4824635;29;20293;-62
2021/12/25 03:58:36;;;;;;;28.70;15.17;;;;;;;6.60;100.00;97503.41;4824473;29;20277;-62
2021/12/25 04:01:23;;;;;;;37.63;17.33;;;;;;;6.78;100.00;97500.88;4824350;29;20274;-63
2021/12/25 04:04:04;;;;;;;25.73;14.93;;;;;;;6.57;100.00;97498.53;4824693;29;20041;-63
2021/12/25 04:06:32;;;;;;;29.73;15.50;;;;;;;6.69;100.00;97507.47;4810387;29;20273;-63
2021/12/25 04:08:59;;;;;;;28.23;15.77;;;;;;;6.63;100.00;97510.94;4824242;29;20385;-63
2021/12/25 04:11:28;;;;;;;26.93;15.13;;;;;;;6.74;100.00;97516.41;4824211;29;20310;-63
2021/12/25 04:13:54;;;;;;;29.00;15.37;;;;;;;6.75;100.00;97507.44;4808759;29;20762;-62
2021/12/25 04:16:20;;;;;;;29.67;16.50;;;;;;;6.72;100.00;97507.84;4824154;29;20374;-63
2021/12/25 04:18:45;;;;;;;31.30;16.60;;;;;;;6.65;100.00;97507.06;4824222;29;20349;-62
2021/12/25 04:21:11;;;;;;;34.83;17.53;;;;;;;6.66;100.00;97507.88;4824167;29;20042;-63
2021/12/25 04:23:40;;;;;;;30.07;15.23;;;;;;;6.45;100.00;97514.31;4824082;29;20034;-63
2021/12/25 04:26:07;;;;;;;27.07;14.63;;;;;;;6.53;100.00;97514.06;4824227;29;20531;-63
2021/12/25 04:28:49;;;;;;;29.67;15.60;;;;;;;6.56;100.00;97516.31;4824019;29;20690;-63
2021/12/25 04:48:22;;;;;;;;;;;;;;;6.46;100.00;97502.66;4824055;29;20309;-62
2021/12/25 05:07:21;;;;;;;30.20;16.37;;;;;;;6.61;100.00;97503.19;4784739;30;20469;-62
2021/12/25 05:09:47;;;;;;;33.77;16.30;;;;;;;6.60;100.00;97506.06;4784865;29;20303;-62
2021/12/25 05:12:13;;;;;;;36.07;17.37;;;;;;;6.61;100.00;97505.03;4785004;30;20043;-62
2021/12/25 05:14:39;;;;;;;32.23;15.80;;;;;;;6.68;100.00;97516.44;4784942;30;20835;-62
2021/12/25 05:17:06;;;;;;;33.87;15.43;;;;;;;6.80;100.00;97512.94;4784919;30;20642;-62
2021/12/25 05:19:32;;;;;;;23.83;13.07;;;;;;;6.69;100.00;97520.75;4784698;29;20031;-62
2021/12/25 05:21:58;;;;;;;24.77;13.07;;;;;;;6.68;100.00;97511.97;4784882;30;20324;-62
2021/12/25 05:24:23;;;;;;;35.57;18.77;;;;;;;6.87;100.00;97512.88;4784749;30;20047;-62
2021/12/25 05:26:49;;;;;;;34.13;19.30;;;;;;;6.89;100.00;97508.19;4769828;30;20080;-62
2021/12/25 05:29:22;;;;;;;34.17;18.93;;;;;;;6.94;100.00;97504.88;4784535;29;20043;-62
2021/12/25 05:31:48;;;;;;;27.87;14.90;;;;;;;6.80;100.00;97506.81;4784718;30;20493;-62
2021/12/25 05:34:17;;;;;;;29.13;15.80;;;;;;;6.73;100.00;97501.50;4784668;30;20275;-63
2021/12/25 05:36:42;;;;;;;29.10;15.00;;;;;;;6.63;100.00;97500.34;4769906;30;20051;-62
2021/12/25 05:39:12;;;;;;;24.83;13.97;;;;;;;6.37;100.00;97494.09;4783731;30;20279;-62
2021/12/25 05:41:37;;;;;;;25.93;13.33;;;;;;;6.14;100.00;97485.81;4766632;30;20043;-62
2021/12/25 05:44:03;;;;;;;28.63;13.53;;;;;;;6.28;100.00;97489.25;4790452;29;20306;-62
2021/12/25 05:46:29;;;;;;;26.23;14.00;;;;;;;6.37;100.00;97491.44;4804640;29;20095;-62
2021/12/25 05:48:55;;;;;;;29.53;14.13;;;;;;;6.23;100.00;97497.03;4804551;29;20302;-62
2021/12/25 05:51:20;;;;;;;30.10;15.63;;;;;;;6.37;100.00;97503.91;4804488;29;20058;-62
2021/12/25 05:53:46;;;;;;;30.50;16.23;;;;;;;6.38;100.00;97503.69;4788486;29;20034;-62
2021/12/25 05:56:12;;;;;;;30.77;15.27;;;;;;;6.28;100.00;97499.84;4788411;29;20042;-62
2021/12/25 05:58:38;;;;;;;32.40;15.83;;;;;;;6.39;100.00;97493.91;4788345;29;20018;-62
2021/12/25 06:01:04;;;;;;;35.07;15.57;;;;;;;6.46;100.00;97498.16;4804505;29;20776;-62
2021/12/25 06:03:30;;;;;;;30.50;15.10;;;;;;;6.35;100.00;97500.63;4802660;29;20092;-62
2021/12/25 06:05:57;;;;;;;33.40;15.73;;;;;;;6.44;100.00;97497.56;4804363;29;20279;-63
2021/12/25 06:08:24;;;;;;;31.43;15.00;;;;;;;6.31;100.00;97486.19;4804404;29;20030;-62
2021/12/25 06:10:50;;;;;;;30.87;15.27;;;;;;;6.34;100.00;97493.72;4804347;29;20331;-62
2021/12/25 06:13:19;;;;;;;28.97;15.70;;;;;;;6.43;100.00;97497.78;4803862;29;20270;-62
2021/12/25 06:15:47;;;;;;;35.33;16.73;;;;;;;6.46;100.00;97498.16;4804502;29;20031;-62
2021/12/25 06:18:13;;;;;;;31.77;15.40;;;;;;;6.49;100.00;97507.53;4804472;29;20289;-62
2021/12/25 06:20:39;;;;;;;30.33;13.97;;;;;;;6.54;100.00;97507.72;4804362;29;20275;-62
2021/12/25 06:23:05;;;;;;;28.87;13.73;;;;;;;6.46;100.00;97505.31;4804403;29;20448;-62
2021/12/25 06:25:31;;;;;;;28.23;13.37;;;;;;;6.60;100.00;97509.53;4804229;29;20345;-62
2021/12/25 06:27:57;;;;;;;30.80;14.40;;;;;;;6.68;100.00;97506.66;4804584;29;20039;-62
2021/12/25 06:30:23;;;;;;;28.10;13.93;;;;;;;6.61;100.00;97505.03;4804088;29;20566;-62
2021/12/25 06:32:48;;;;;;;30.30;13.80;;;;;;;6.41;100.00;97513.06;4804252;29;20318;-62
2021/12/25 06:35:14;;;;;;;28.03;13.33;;;;;;;6.47;100.00;97512.22;4803479;29;20122;-62
2021/12/25 06:37:45;;;;;;;30.93;14.70;;;;;;;6.27;100.00;97512.31;4788007;29;20042;-62
2021/12/25 06:40:17;;;;;;;30.97;14.43;;;;;;;6.32;100.00;97517.81;4811807;29;20022;-62
2021/12/25 06:42:43;;;;;;;30.00;14.33;;;;;;;6.25;100.00;97517.00;4822273;29;20271;-62
2021/12/25 06:45:09;;;;;;;29.07;14.50;;;;;;;6.33;100.00;97516.78;4822153;29;20290;-63
2021/12/25 06:47:35;;;;;;;26.30;13.57;;;;;;;6.29;100.00;97518.22;4822218;29;20274;-62
2021/12/25 06:50:00;;;;;;;35.17;16.00;;;;;;;6.15;100.00;97508.66;4822079;29;20042;-62
2021/12/25 06:52:26;;;;;;;34.20;15.33;;;;;;;6.32;100.00;97514.34;4822144;29;20458;-62
2021/12/25 06:54:51;;;;;;;32.80;15.17;;;;;;;6.34;100.00;97517.59;4821593;29;20042;-63
2021/12/25 06:57:18;;;;;;;31.33;15.37;;;;;;;6.44;100.00;97515.31;4822173;29;20034;-62
2021/12/25 06:59:43;;;;;;;27.87;14.63;;;;;;;6.33;100.00;97519.44;4822098;29;20503;-62
2021/12/25 07:02:09;;;;;;;27.33;13.80;;;;;;;6.21;100.00;97513.16;4822105;29;20274;-62
2021/12/25 07:04:34;;;;;;;29.43;13.93;;;;;;;5.98;100.00;97513.59;4821928;29;20038;-64
2021/12/25 07:07:00;;;;;;;27.33;14.43;;;;;;;6.05;100.00;97509.09;4822212;29;20054;-60
2021/12/25 07:09:25;;;;;;;32.00;15.33;;;;;;;6.12;100.00;97509.88;4821817;29;20149;-60
2021/12/25 07:11:51;;;;;;;26.30;14.63;;;;;;;6.10;100.00;97513.78;4821907;29;20499;-60
2021/12/25 07:14:17;;;;;;;26.97;14.27;;;;;;;6.06;100.00;97515.22;4822961;29;20030;-61
2021/12/25 07:16:44;;;;;;;26.87;14.90;;;;;;;6.06;100.00;97520.53;4825018;29;20152;-60
2021/12/25 07:19:12;;;;;;;27.67;14.70;;;;;;;6.11;100.00;97526.03;4825107;29;20026;-61
2021/12/25 07:21:38;;;;;;;27.87;13.73;;;;;;;6.16;100.00;97507.63;4824987;29;20273;-61
2021/12/25 07:24:05;;;;;;;27.23;14.23;;;;;;;6.28;100.00;97497.19;4808977;29;20309;-60
2021/12/25 07:26:30;;;;;;;26.37;14.80;;;;;;;6.18;100.00;97477.25;4825065;29;20640;-61
2021/12/25 07:28:56;;;;;;;28.90;15.07;;;;;;;6.23;100.00;97489.84;4825180;29;20282;-61
2021/12/25 07:31:22;;;;;;;30.33;15.23;;;;;;;6.39;100.00;97488.59;4824761;29;20034;-62
2021/12/25 07:33:48;;;;;;;25.17;14.27;;;;;;;6.27;100.00;97482.31;4825074;29;20276;-61
2021/12/25 07:36:13;;;;;;;27.93;15.57;;;;;;;6.38;100.00;97481.66;4824995;29;20130;-61
2021/12/25 07:38:39;;;;;;;29.27;15.27;;;;;;;6.27;100.00;97477.81;4808789;29;20026;-61
2021/12/25 07:41:05;;;;;;;26.97;14.97;;;;;;;6.32;100.00;97474.56;4824829;29;20030;-61
2021/12/25 07:43:31;;;;;;;27.87;15.03;;;;;;;6.42;100.00;97491.66;4824767;29;20137;-61
2021/12/25 07:45:57;;;;;;;26.90;14.57;;;;;;;6.31;100.00;97492.31;4823895;29;20042;-63
2021/12/25 07:48:25;;;;;;;28.07;15.47;;;;;;;6.29;100.00;97499.66;4824212;29;20031;-62
2021/12/25 07:50:51;;;;;;;32.57;16.60;;;;;;;6.34;100.00;97502.50;4824088;29;20390;-62
2021/12/25 07:53:18;;;;;;;37.80;16.23;;;;;;;6.41;100.00;97507.78;4824496;29;20307;-62
2021/12/25 07:55:47;;;;;;;36.73;18.33;;;;;;;6.53;100.00;97495.47;4824283;29;20273;-61
